Time;durP1;ratioP1;P1;durP2;ratioP2;P2;SDS_P1;SDS_P2;PMS_P1;PMS_P2;Temp;Humidity;BMP_temperature;BMP_pressure;BME280_temperature;BME280_humidity;BME280_pressure;Samples;Min_cycle;Max_cycle;Signal;HPM_P1;HPM_P2
2023/11/01 00:00:05;;;;;;;1.83;1.00;;;;;;;5.66;100.00;92295.28;6244039;22;20014;-79
2023/11/01 00:02:37;;;;;;;3.75;0.88;;;;;;;5.65;100.00;92293.69;6271128;22;20034;-77
2023/11/01 00:05:03;;;;;;;0.70;0.70;;;;;;;5.67;100.00;92293.44;6244041;22;20015;-78
2023/11/01 00:07:29;;;;;;;0.60;0.60;;;;;;;5.63;100.00;92291.38;6218647;22;20043;-78
2023/11/01 00:09:55;;;;;;;0.98;0.80;;;;;;;5.64;100.00;92290.31;6270927;22;20023;-78
2023/11/01 00:12:20;;;;;;;0.82;0.80;;;;;;;5.58;100.00;92293.97;6271472;22;20008;-78
2023/11/01 00:14:46;;;;;;;0.70;0.70;;;;;;;5.55;100.00;92289.28;6270802;22;20281;-78
2023/11/01 00:17:11;;;;;;;1.85;1.00;;;;;;;5.53;100.00;92293.97;6269399;22;20015;-78
2023/11/01 00:19:37;;;;;;;2.25;0.88;;;;;;;5.58;100.00;92293.97;6243223;22;20024;-78
2023/11/01 00:22:03;;;;;;;1.02;0.82;;;;;;;5.58;100.00;92283.59;6270190;22;20302;-78
2023/11/01 00:24:29;;;;;;;1.25;0.90;;;;;;;5.60;100.00;92281.50;6243756;22;20012;-79
2023/11/01 00:26:54;;;;;;;1.08;0.88;;;;;;;5.59;100.00;92277.34;6270142;22;20003;-78
2023/11/01 00:29:20;;;;;;;1.63;0.90;;;;;;;5.58;100.00;92273.22;6218158;22;20025;-77
2023/11/01 00:31:46;;;;;;;0.73;0.70;;;;;;;5.58;100.00;92275.81;6270856;22;20038;-78
2023/11/01 00:34:12;;;;;;;1.10;0.80;;;;;;;5.59;100.00;92273.97;6270597;22;20071;-78
2023/11/01 00:36:38;;;;;;;1.00;0.90;;;;;;;5.57;100.00;92266.44;6217945;22;20022;-77
2023/11/01 00:39:03;;;;;;;1.00;0.90;;;;;;;5.54;100.00;92277.34;6242418;22;20011;-77
2023/11/01 00:41:30;;;;;;;1.38;0.93;;;;;;;5.51;100.00;92267.47;6270432;22;20004;-78
2023/11/01 00:43:56;;;;;;;0.80;0.80;;;;;;;5.52;100.00;92269.03;6242933;22;20026;-77
2023/11/01 00:46:21;;;;;;;0.80;0.80;;;;;;;5.50;100.00;92271.13;6217854;22;20023;-77
2023/11/01 00:48:47;;;;;;;0.98;0.85;;;;;;;5.51;100.00;92277.09;6242759;22;20018;-77
2023/11/01 00:51:13;;;;;;;1.15;0.90;;;;;;;5.57;100.00;92279.41;6243941;22;20012;-79
2023/11/01 00:53:38;;;;;;;3.53;1.10;;;;;;;5.61;100.00;92280.47;6245491;22;20024;-78
2023/11/01 00:56:04;;;;;;;1.55;0.68;;;;;;;5.64;100.00;92282.53;6244572;22;20402;-78
2023/11/01 00:58:30;;;;;;;1.58;0.90;;;;;;;5.68;100.00;92276.84;6271655;22;20007;-78
2023/11/01 01:00:56;;;;;;;1.20;0.93;;;;;;;5.73;100.00;92274.22;6271415;22;20011;-78
2023/11/01 01:03:21;;;;;;;1.70;1.10;;;;;;;5.77;100.00;92277.88;6245006;22;20057;-78
2023/11/01 01:05:47;;;;;;;0.88;0.88;;;;;;;5.74;100.00;92273.19;6253713;22;20271;-78
2023/11/01 01:08:13;;;;;;;4.85;1.20;;;;;;;5.67;100.00;92273.44;6272029;22;20349;-78
2023/11/01 01:10:39;;;;;;;1.33;0.90;;;;;;;5.62;100.00;92263.84;6271587;22;20445;-78
2023/11/01 01:13:04;;;;;;;2.05;0.90;;;;;;;5.56;100.00;92262.31;6270405;22;20027;-78
2023/11/01 01:15:30;;;;;;;1.10;0.82;;;;;;;5.50;100.00;92258.13;6272445;22;20012;-78
2023/11/01 01:17:55;;;;;;;0.80;0.80;;;;;;;5.47;100.00;92253.47;6270396;22;20019;-78
2023/11/01 01:20:21;;;;;;;0.80;0.80;;;;;;;5.38;100.00;92248.03;6269789;22;20011;-77
2023/11/01 01:22:47;;;;;;;1.38;1.00;;;;;;;5.43;100.00;92257.63;6270226;22;20331;-78
2023/11/01 01:25:12;;;;;;;1.70;0.90;;;;;;;5.42;100.00;92256.03;6271991;22;20015;-78
2023/11/01 01:27:41;;;;;;;2.42;0.77;;;;;;;5.41;100.00;92246.72;6244748;22;20007;-78
2023/11/01 01:30:08;;;;;;;0.77;0.77;;;;;;;5.40;100.00;92247.75;6272643;22;20522;-78
2023/11/01 01:32:33;;;;;;;1.05;0.70;;;;;;;5.38;100.00;92247.22;6271937;22;20022;-77
2023/11/01 01:34:59;;;;;;;2.13;0.80;;;;;;;5.35;100.00;92248.53;6272224;22;20003;-78
2023/11/01 01:37:25;;;;;;;0.80;0.80;;;;;;;5.31;100.00;92239.69;6272211;22;20011;-78
2023/11/01 01:39:52;;;;;;;0.80;0.80;;;;;;;5.31;100.00;92236.31;6270193;22;20011;-79
2023/11/01 01:42:18;;;;;;;1.17;0.73;;;;;;;5.28;100.00;92242.03;6270623;22;20384;-78
2023/11/01 01:44:43;;;;;;;1.38;0.95;;;;;;;5.25;100.00;92234.78;6270182;22;20008;-78
2023/11/01 01:47:10;;;;;;;0.98;0.80;;;;;;;5.24;100.00;92246.19;6269912;22;20052;-78
2023/11/01 01:49:35;;;;;;;1.55;0.90;;;;;;;5.21;100.00;92237.09;6271930;22;20368;-77
2023/11/01 01:52:01;;;;;;;0.70;0.68;;;;;;;5.21;100.00;92247.47;6271062;22;20014;-78
2023/11/01 01:54:29;;;;;;;0.82;0.82;;;;;;;5.16;100.00;92237.88;6270199;22;20447;-78
2023/11/01 01:56:54;;;;;;;0.80;0.80;;;;;;;5.24;100.00;92253.97;6270420;22;20094;-77
2023/11/01 01:59:20;;;;;;;1.85;0.95;;;;;;;5.26;100.00;92249.31;6270020;22;20097;-78
2023/11/01 02:01:47;;;;;;;2.13;1.00;;;;;;;5.30;100.00;92251.13;6269938;22;20016;-77
2023/11/01 02:04:13;;;;;;;1.17;1.00;;;;;;;5.29;100.00;92243.59;6219082;22;20078;-78
2023/11/01 02:06:39;;;;;;;0.80;0.80;;;;;;;5.30;100.00;92251.13;6269681;22;20081;-77
2023/11/01 02:09:05;;;;;;;0.80;0.80;;;;;;;5.26;100.00;92238.91;6271160;22;20082;-77
2023/11/01 02:11:32;;;;;;;1.65;1.00;;;;;;;5.25;100.00;92247.75;6270870;22;20039;-78
2023/11/01 02:13:57;;;;;;;0.90;0.80;;;;;;;5.22;100.00;92242.03;6269154;22;20043;-78
2023/11/01 02:16:23;;;;;;;0.82;0.80;;;;;;;5.20;100.00;92241.53;6271820;22;20011;-77
2023/11/01 02:18:49;;;;;;;0.70;0.70;;;;;;;5.15;100.00;92240.72;6244633;22;20499;-77
2023/11/01 02:21:15;;;;;;;2.67;1.00;;;;;;;5.12;100.00;92239.44;6244290;22;20008;-78
2023/11/01 02:23:42;;;;;;;0.95;0.75;;;;;;;5.11;100.00;92237.09;6270087;22;20023;-78
2023/11/01 02:26:08;;;;;;;0.68;0.68;;;;;;;5.07;100.00;92228.28;6271268;22;20019;-78
2023/11/01 02:28:35;;;;;;;0.77;0.77;;;;;;;5.03;100.00;92240.97;6269779;22;20004;-78
2023/11/01 02:31:01;;;;;;;0.80;0.80;;;;;;;5.00;100.00;92244.09;6270553;22;20038;-79
2023/11/01 02:33:26;;;;;;;1.38;0.90;;;;;;;4.98;100.00;92246.94;6269663;22;20091;-78
2023/11/01 02:35:52;;;;;;;1.42;0.88;;;;;;;4.96;100.00;92256.00;6271331;22;20618;-78
2023/11/01 02:38:18;;;;;;;1.15;0.80;;;;;;;4.94;100.00;92247.72;6269858;22;20094;-78
2023/11/01 02:40:44;;;;;;;1.92;1.05;;;;;;;4.94;100.00;92243.28;6271035;22;20327;-79
2023/11/01 02:43:10;;;;;;;1.30;0.95;;;;;;;4.95;100.00;92246.66;6244359;22;20720;-78
2023/11/01 02:45:35;;;;;;;1.13;0.95;;;;;;;4.94;100.00;92243.28;6269667;22;20349;-78
2023/11/01 02:48:01;;;;;;;2.25;0.95;;;;;;;4.92;100.00;92239.41;6269406;22;20023;-78
2023/11/01 02:50:27;;;;;;;1.35;1.08;;;;;;;4.93;100.00;92241.75;6269227;22;20011;-78
2023/11/01 02:52:52;;;;;;;1.30;0.90;;;;;;;4.94;100.00;92242.53;6269942;22;20007;-78
2023/11/01 02:55:18;;;;;;;2.15;0.90;;;;;;;4.93;100.00;92243.53;6269639;22;20209;-77
2023/11/01 02:57:45;;;;;;;1.67;1.10;;;;;;;4.89;100.00;92232.91;6269334;22;20375;-78
2023/11/01 03:00:19;;;;;;;1.70;1.10;;;;;;;4.89;100.00;92237.34;6269574;22;20519;-78
2023/11/01 03:02:47;;;;;;;1.75;1.10;;;;;;;4.87;100.00;92232.38;6271011;22;20069;-78
2023/11/01 03:05:14;;;;;;;1.77;1.20;;;;;;;4.88;100.00;92227.97;6269596;22;20050;-78
2023/11/01 03:07:41;;;;;;;1.73;1.10;;;;;;;4.87;100.00;92229.78;6269461;22;20024;-78
2023/11/01 03:10:09;;;;;;;1.73;1.10;;;;;;;4.85;100.00;92236.28;6269232;22;20098;-78
2023/11/01 03:12:37;;;;;;;1.08;0.90;;;;;;;4.87;100.00;92236.81;6269041;22;20087;-78
2023/11/01 03:15:04;;;;;;;1.42;1.13;;;;;;;4.90;100.00;92233.69;6270151;22;20008;-78
2023/11/01 03:17:30;;;;;;;1.13;0.95;;;;;;;4.91;100.00;92240.41;6270771;22;20015;-77
2023/11/01 03:19:55;;;;;;;1.40;1.00;;;;;;;4.91;100.00;92236.03;6269163;22;20018;-78
2023/11/01 03:22:23;;;;;;;1.63;1.10;;;;;;;4.90;100.00;92231.09;6268906;22;20066;-79
2023/11/01 03:24:48;;;;;;;1.10;0.80;;;;;;;4.92;100.00;92234.22;6270722;22;20020;-78
2023/11/01 03:27:14;;;;;;;0.88;0.85;;;;;;;4.91;100.00;92245.59;6270770;22;20459;-78
2023/11/01 03:29:40;;;;;;;1.13;0.90;;;;;;;4.89;100.00;92235.50;6270765;22;20110;-78
2023/11/01 03:32:08;;;;;;;1.75;0.98;;;;;;;4.87;100.00;92242.00;6243476;22;19996;-77
2023/11/01 03:34:34;;;;;;;1.00;0.90;;;;;;;4.87;100.00;92234.97;6270774;22;20433;-77
2023/11/01 03:37:00;;;;;;;1.27;0.90;;;;;;;4.85;100.00;92228.50;6268925;22;20015;-78
2023/11/01 03:39:26;;;;;;;0.75;0.75;;;;;;;4.84;100.00;92232.91;6270517;22;19999;-78
2023/11/01 03:41:52;;;;;;;1.95;1.00;;;;;;;4.84;100.00;92232.13;6270445;22;20012;-77
2023/11/01 03:44:18;;;;;;;1.33;0.98;;;;;;;4.83;100.00;92225.38;6268945;22;20004;-78
2023/11/01 03:46:45;;;;;;;1.50;0.93;;;;;;;4.84;100.00;92237.31;6269352;22;20322;-78
2023/11/01 03:49:11;;;;;;;2.42;0.98;;;;;;;4.82;100.00;92229.00;6269418;22;20365;-77
2023/11/01 03:51:37;;;;;;;1.45;1.10;;;;;;;4.78;100.00;92228.75;6269658;22;20000;-78
2023/11/01 03:54:03;;;;;;;3.97;0.88;;;;;;;4.75;100.00;92224.84;6243789;22;20016;-78
2023/11/01 03:56:28;;;;;;;0.70;0.70;;;;;;;4.77;100.00;92227.16;6269912;22;20094;-78
2023/11/01 03:58:56;;;;;;;1.25;1.00;;;;;;;4.75;100.00;92230.03;6270544;22;20020;-78
2023/11/01 04:01:22;;;;;;;1.02;0.95;;;;;;;4.75;100.00;92222.25;6270156;22;20345;-78
2023/11/01 04:03:48;;;;;;;2.58;0.70;;;;;;;4.73;100.00;92219.13;6243733;22;20068;-78
2023/11/01 04:06:13;;;;;;;1.15;0.82;;;;;;;4.73;100.00;92221.72;6270169;22;20099;-78
2023/11/01 04:08:39;;;;;;;0.77;0.60;;;;;;;4.72;100.00;92214.19;6270777;22;20011;-77
2023/11/01 04:11:05;;;;;;;0.70;0.70;;;;;;;4.72;100.00;92214.19;6243567;22;20090;-78
2023/11/01 04:13:34;;;;;;;0.80;0.80;;;;;;;4.73;100.00;92215.78;6270365;22;20069;-77
2023/11/01 04:15:59;;;;;;;1.65;0.90;;;;;;;4.72;100.00;92214.19;6269094;22;20034;-78
2023/11/01 04:18:25;;;;;;;1.17;0.70;;;;;;;4.71;100.00;92218.63;6270502;22;20341;-78
2023/11/01 04:20:51;;;;;;;1.30;0.80;;;;;;;4.70;100.00;92222.22;6270848;22;20082;-78
2023/11/01 04:23:17;;;;;;;2.58;0.95;;;;;;;4.69;100.00;92218.09;6243228;22;20043;-77
2023/11/01 04:25:43;;;;;;;0.90;0.90;;;;;;;4.69;100.00;92225.09;6243571;22;20007;-78
2023/11/01 04:28:09;;;;;;;3.05;0.98;;;;;;;4.66;100.00;92223.78;6272014;22;20341;-78
2023/11/01 04:30:41;;;;;;;2.60;0.73;;;;;;;4.67;100.00;92216.78;6273080;22;20072;-78
2023/11/01 04:33:06;;;;;;;1.20;0.90;;;;;;;4.68;100.00;92219.09;6245421;22;20011;-78
2023/11/01 04:35:34;;;;;;;1.67;0.90;;;;;;;4.68;100.00;92220.94;6272972;22;20054;-78
2023/11/01 04:38:00;;;;;;;1.48;0.73;;;;;;;4.67;100.00;92227.16;6244878;22;20023;-78
2023/11/01 04:40:26;;;;;;;3.88;1.80;;;;;;;4.67;100.00;92222.75;6272577;22;20011;-78
2023/11/01 04:42:52;;;;;;;3.17;1.60;;;;;;;4.68;100.00;92218.34;6272974;22;20014;-78
2023/11/01 04:45:17;;;;;;;2.42;1.27;;;;;;;4.66;100.00;92216.03;6272590;22;20015;-78
2023/11/01 04:47:44;;;;;;;1.38;0.95;;;;;;;4.65;100.00;92218.84;6271437;22;20012;-78
2023/11/01 04:50:10;;;;;;;0.98;0.88;;;;;;;4.63;100.00;92215.75;6273409;22;20065;-77
2023/11/01 04:52:40;;;;;;;1.67;0.93;;;;;;;4.59;100.00;92211.06;6273759;22;20391;-78
2023/11/01 04:55:08;;;;;;;0.80;0.80;;;;;;;4.62;100.00;92211.59;6273523;22;20020;-77
2023/11/01 04:57:34;;;;;;;2.45;0.80;;;;;;;4.60;100.00;92217.03;6245883;22;20079;-79
2023/11/01 05:00:01;;;;;;;1.33;0.93;;;;;;;4.59;100.00;92215.47;6272236;22;20039;-77
2023/11/01 05:02:26;;;;;;;1.15;0.90;;;;;;;4.59;100.00;92211.06;6272468;22;20061;-79
2023/11/01 05:04:52;;;;;;;1.15;1.00;;;;;;;4.58;100.00;92209.50;6272558;22;20079;-77
2023/11/01 05:07:19;;;;;;;2.25;0.70;;;;;;;4.58;100.00;92206.13;6272417;22;20034;-80
2023/11/01 05:09:45;;;;;;;0.90;0.70;;;;;;;4.56;100.00;92206.38;6272836;22;20043;-76
2023/11/01 05:12:10;;;;;;;0.82;0.70;;;;;;;4.55;100.00;92209.25;6272969;22;20042;-80
2023/11/01 05:14:36;;;;;;;0.70;0.70;;;;;;;4.54;100.00;92213.63;6246370;22;20016;-79
2023/11/01 05:17:02;;;;;;;1.23;0.90;;;;;;;4.54;100.00;92212.84;6274259;22;20020;-78
2023/11/01 05:19:27;;;;;;;1.00;0.90;;;;;;;4.53;100.00;92208.72;6273629;22;20381;-80
2023/11/01 05:21:53;;;;;;;1.00;0.90;;;;;;;4.54;100.00;92208.44;6247592;22;20027;-79
2023/11/01 05:24:19;;;;;;;1.05;0.93;;;;;;;4.52;100.00;92218.28;6248046;22;20018;-79
2023/11/01 05:26:44;;;;;;;1.10;0.82;;;;;;;4.53;100.00;92208.72;6223214;22;20011;-79
2023/11/01 05:29:10;;;;;;;1.15;0.63;;;;;;;4.53;100.00;92214.69;6273477;22;20495;-79
2023/11/01 05:31:36;;;;;;;1.23;0.80;;;;;;;4.57;100.00;92214.94;6274044;22;20453;-79
2023/11/01 05:34:03;;;;;;;1.05;0.73;;;;;;;4.59;100.00;92220.66;6273991;22;20023;-79
2023/11/01 05:36:29;;;;;;;1.30;0.90;;;;;;;4.57;100.00;92215.72;6273842;22;20499;-79
2023/11/01 05:38:55;;;;;;;0.70;0.70;;;;;;;4.56;100.00;92221.94;6273144;22;19995;-78
2023/11/01 05:41:22;;;;;;;0.70;0.70;;;;;;;4.55;100.00;92227.41;6273218;22;20376;-79
2023/11/01 05:43:47;;;;;;;0.63;0.63;;;;;;;4.53;100.00;92232.06;6246466;22;20024;-78
2023/11/01 05:46:14;;;;;;;0.65;0.65;;;;;;;4.53;100.00;92237.25;6221011;22;20004;-79
2023/11/01 05:48:40;;;;;;;0.70;0.70;;;;;;;4.54;100.00;92233.59;6246684;22;20062;-79
2023/11/01 05:51:06;;;;;;;0.82;0.70;;;;;;;4.51;100.00;92240.06;6246086;22;20441;-78
2023/11/01 05:53:32;;;;;;;1.05;0.70;;;;;;;4.53;100.00;92248.38;6247007;22;20273;-79
2023/11/01 05:56:01;;;;;;;1.00;0.82;;;;;;;4.52;100.00;92252.00;6273308;22;20050;-79
2023/11/01 05:58:28;;;;;;;1.55;0.80;;;;;;;4.53;100.00;92260.56;6246928;22;20063;-79
2023/11/01 06:00:54;;;;;;;1.30;0.90;;;;;;;4.51;100.00;92265.22;6273098;22;20425;-79
2023/11/01 06:03:20;;;;;;;0.73;0.73;;;;;;;4.51;100.00;92262.63;6273081;22;20107;-79
2023/11/01 06:05:46;;;;;;;4.88;2.10;;;;;;;4.52;100.00;92271.97;6274026;22;20016;-79
2023/11/01 06:08:13;;;;;;;4.45;2.08;;;;;;;4.54;100.00;92275.84;6220500;22;20015;-79
2023/11/01 06:10:39;;;;;;;2.63;1.52;;;;;;;4.61;100.00;92274.84;6274448;22;20008;-79
2023/11/01 06:13:07;;;;;;;2.47;1.50;;;;;;;4.64;100.00;92274.31;6274667;22;20078;-79
2023/11/01 06:15:34;;;;;;;2.70;1.50;;;;;;;4.67;100.00;92272.00;6274807;22;20004;-80
2023/11/01 06:18:00;;;;;;;3.75;1.83;;;;;;;4.80;100.00;92271.53;6274976;22;20027;-80
2023/11/01 06:20:26;;;;;;;3.50;1.63;;;;;;;5.15;100.00;92277.81;6275991;22;20342;-79
2023/11/01 06:22:51;;;;;;;3.40;1.80;;;;;;;5.68;100.00;92284.63;6274263;22;20065;-79
2023/11/01 06:25:20;;;;;;;3.38;1.60;;;;;;;6.34;100.00;92289.75;6274371;22;20011;-79
2023/11/01 06:27:45;;;;;;;6.20;1.60;;;;;;;6.56;100.00;92291.25;6273851;22;20094;-79
2023/11/01 06:30:13;;;;;;;2.08;1.27;;;;;;;6.57;100.00;92287.59;6273887;22;20039;-80
2023/11/01 06:32:38;;;;;;;1.70;1.05;;;;;;;6.72;100.00;92282.34;6245557;22;20429;-79
2023/11/01 06:35:05;;;;;;;1.83;1.20;;;;;;;6.64;100.00;92288.06;6277277;22;20027;-80
2023/11/01 06:37:30;;;;;;;2.35;1.30;;;;;;;6.66;100.00;92288.59;6277562;22;20015;-78
2023/11/01 06:39:56;;;;;;;1.92;1.05;;;;;;;6.75;100.00;92288.81;6277654;22;20039;-79
2023/11/01 06:42:22;;;;;;;2.25;1.30;;;;;;;7.08;100.00;92284.75;6276943;22;20008;-77
2023/11/01 06:44:48;;;;;;;1.42;1.05;;;;;;;7.38;100.00;92291.59;6247023;22;20016;-79
2023/11/01 06:47:14;;;;;;;0.90;0.80;;;;;;;8.05;100.00;92299.69;6273654;22;20150;-78
2023/11/01 06:49:39;;;;;;;1.00;0.73;;;;;;;8.01;100.00;92293.47;6272822;22;20169;-78
2023/11/01 06:52:06;;;;;;;1.00;0.90;;;;;;;7.95;100.00;92296.38;6273870;22;20019;-78
2023/11/01 06:54:32;;;;;;;0.77;0.75;;;;;;;7.87;100.00;92297.78;6274509;22;20086;-79
2023/11/01 06:56:58;;;;;;;1.50;1.05;;;;;;;7.68;100.00;92295.06;6277561;22;20007;-78
2023/11/01 06:59:24;;;;;;;2.22;1.10;;;;;;;7.50;100.00;92301.69;6247571;22;20365;-78
2023/11/01 07:01:49;;;;;;;1.55;1.10;;;;;;;7.40;100.00;92304.34;6280815;22;20211;-80
2023/11/01 07:04:15;;;;;;;2.42;1.25;;;;;;;7.29;100.00;92299.22;6255710;22;20058;-79
2023/11/01 07:06:43;;;;;;;1.33;1.00;;;;;;;7.23;100.00;92308.13;6177886;22;20086;-81
2023/11/01 07:09:09;;;;;;;2.38;1.25;;;;;;;7.17;100.00;92309.19;6157179;23;20450;-80
2023/11/01 07:11:35;;;;;;;1.98;1.20;;;;;;;7.15;100.00;92308.66;6159106;23;20092;-79
2023/11/01 07:14:01;;;;;;;1.52;1.20;;;;;;;7.11;100.00;92305.03;6156346;23;20020;-80
2023/11/01 07:16:27;;;;;;;2.40;1.30;;;;;;;7.12;100.00;92308.44;6159360;23;20017;-80
2023/11/01 07:18:53;;;;;;;2.67;1.30;;;;;;;7.12;100.00;92318.84;6158352;23;20005;-80
2023/11/01 07:21:19;;;;;;;2.45;1.40;;;;;;;7.12;100.00;92314.41;6159711;23;20032;-80
2023/11/01 07:23:44;;;;;;;4.88;1.50;;;;;;;7.16;100.00;92325.06;6155968;23;20372;-81
2023/11/01 07:26:10;;;;;;;2.88;1.42;;;;;;;7.20;100.00;92320.88;6156979;23;20017;-80
2023/11/01 07:28:36;;;;;;;3.53;1.30;;;;;;;7.23;100.00;92321.13;6157466;23;20309;-80
2023/11/01 07:31:02;;;;;;;2.22;1.25;;;;;;;7.27;100.00;92323.97;6158359;23;20001;-81
2023/11/01 07:33:28;;;;;;;3.22;1.40;;;;;;;7.31;100.00;92327.59;6160488;23;20036;-80
2023/11/01 07:35:53;;;;;;;3.47;1.60;;;;;;;7.36;100.00;92327.53;6156223;23;20017;-79
2023/11/01 07:38:19;;;;;;;4.63;1.60;;;;;;;7.43;100.00;92335.06;6108082;23;20367;-79
2023/11/01 07:40:45;;;;;;;2.22;1.50;;;;;;;7.49;100.00;92336.59;6158567;23;20039;-79
2023/11/01 07:43:13;;;;;;;4.60;1.80;;;;;;;7.58;100.00;92337.56;6157996;23;20025;-79
2023/11/01 07:45:39;;;;;;;4.63;1.92;;;;;;;7.68;100.00;92341.97;6155428;23;20028;-79
2023/11/01 07:48:05;;;;;;;2.72;1.60;;;;;;;7.75;100.00;92341.66;6156260;23;20104;-79
2023/11/01 07:50:32;;;;;;;2.80;1.58;;;;;;;7.80;100.00;92339.78;6160273;23;20090;-79
2023/11/01 07:52:58;;;;;;;3.80;1.30;;;;;;;7.87;100.00;92345.44;6158390;23;20037;-79
2023/11/01 07:55:23;;;;;;;3.95;1.60;;;;;;;7.93;100.00;92341.00;6158341;23;20028;-79
2023/11/01 07:57:49;;;;;;;2.25;1.45;;;;;;;8.00;100.00;92344.06;6158512;23;20039;-79
2023/11/01 08:00:15;;;;;;;2.10;1.40;;;;;;;8.07;100.00;92336.69;6158168;23;20407;-79
2023/11/01 08:02:41;;;;;;;3.00;1.50;;;;;;;8.18;100.00;92334.00;6156932;23;20018;-79
2023/11/01 08:05:07;;;;;;;6.28;1.65;;;;;;;8.26;100.00;92331.59;6132110;23;20426;-79
2023/11/01 08:07:33;;;;;;;3.58;1.65;;;;;;;8.39;100.00;92324.94;6134173;23;20017;-80
2023/11/01 08:10:01;;;;;;;5.15;2.30;;;;;;;8.56;100.00;92321.94;6158330;23;20049;-79
2023/11/01 08:12:26;;;;;;;3.67;2.13;;;;;;;9.13;100.00;92324.69;6160602;23;19998;-79
2023/11/01 08:15:00;;;;;;;4.88;2.72;;;;;;;9.87;100.00;92314.50;6155630;23;20013;-79
2023/11/01 08:17:26;;;;;;;3.50;1.40;;;;;;;10.15;100.00;92322.41;6157126;23;20032;-79
2023/11/01 08:19:52;;;;;;;2.78;1.60;;;;;;;10.29;100.00;92317.25;6155642;23;20010;-80
2023/11/01 08:22:17;;;;;;;2.42;1.50;;;;;;;10.27;100.00;92316.72;6154251;23;20022;-79
2023/11/01 08:24:43;;;;;;;2.20;1.30;;;;;;;10.19;100.00;92316.31;6156083;23;20014;-79
2023/11/01 08:27:09;;;;;;;3.40;1.23;;;;;;;10.10;100.00;92318.03;6159481;23;20001;-79
2023/11/01 08:29:35;;;;;;;2.38;1.40;;;;;;;10.37;100.00;92316.59;6160092;23;20001;-79
2023/11/01 08:32:02;;;;;;;3.25;1.40;;;;;;;10.45;100.00;92318.56;6133599;23;20043;-79
2023/11/01 08:34:28;;;;;;;1.80;1.20;;;;;;;10.73;100.00;92316.72;6157016;23;20013;-79
2023/11/01 08:36:53;;;;;;;2.97;1.40;;;;;;;10.71;100.00;92313.63;6154188;23;20511;-80
2023/11/01 08:39:19;;;;;;;2.05;1.15;;;;;;;11.00;100.00;92307.31;6154149;23;20101;-80
2023/11/01 08:41:45;;;;;;;4.68;1.35;;;;;;;11.00;100.00;92313.31;6154065;23;20010;-80
2023/11/01 08:44:11;;;;;;;1.80;1.17;;;;;;;10.99;100.00;92311.00;6152864;23;20479;-79
2023/11/01 08:46:37;;;;;;;3.00;1.45;;;;;;;10.82;100.00;92311.59;6153071;23;20371;-80
2023/11/01 08:49:03;;;;;;;1.52;1.08;;;;;;;10.49;100.00;92314.31;6150079;23;20035;-80
2023/11/01 08:51:28;;;;;;;4.68;1.50;;;;;;;10.31;100.00;92315.13;6153180;23;20022;-79
2023/11/01 08:53:59;;;;;;;2.53;1.40;;;;;;;9.83;100.00;92312.75;6154964;23;20092;-80
2023/11/01 08:56:25;;;;;;;4.13;1.40;;;;;;;9.65;100.00;92316.94;6154055;23;20010;-80
2023/11/01 08:58:51;;;;;;;2.50;1.40;;;;;;;9.51;100.00;92311.63;6155767;23;20013;-80
2023/11/01 09:01:24;;;;;;;2.33;1.38;;;;;;;9.44;100.00;92312.00;6152823;23;20017;-78
2023/11/01 09:04:21;;;;;;;1.95;1.27;;;;;;;9.41;100.00;92306.53;6156015;23;20024;-78
2023/11/01 09:06:47;;;;;;;2.30;1.25;;;;;;;9.36;100.00;92305.56;6150439;23;20342;-78
2023/11/01 09:09:12;;;;;;;2.38;1.40;;;;;;;9.34;100.00;92299.84;6152026;23;20036;-79
2023/11/01 09:11:38;;;;;;;2.40;1.27;;;;;;;9.42;100.00;92293.22;6152518;23;20082;-81
2023/11/01 09:14:04;;;;;;;1.92;1.23;;;;;;;9.49;100.00;92304.06;6129541;23;20036;-80
2023/11/01 09:16:30;;;;;;;1.75;1.27;;;;;;;9.58;100.00;92297.16;6154849;23;20105;-80
2023/11/01 09:18:57;;;;;;;2.72;1.40;;;;;;;9.70;100.00;92299.31;6153419;23;20022;-80
2023/11/01 09:21:23;;;;;;;3.28;1.65;;;;;;;9.83;100.00;92302.28;6155651;23;20036;-80
2023/11/01 09:23:49;;;;;;;3.03;1.23;;;;;;;9.88;100.00;92297.72;6154145;23;20005;-79
2023/11/01 09:26:15;;;;;;;3.25;1.25;;;;;;;9.99;100.00;92290.50;6153787;23;20022;-79
2023/11/01 09:28:42;;;;;;;1.88;1.20;;;;;;;9.90;100.00;92294.84;6152805;23;20105;-80
2023/11/01 09:31:07;;;;;;;2.30;1.33;;;;;;;9.88;100.00;92292.50;6153448;23;20001;-80
2023/11/01 09:33:34;;;;;;;2.33;1.27;;;;;;;9.83;100.00;92302.28;6152427;23;20056;-79
2023/11/01 09:35:59;;;;;;;4.95;1.48;;;;;;;9.82;100.00;92303.31;6152820;23;20013;-80
2023/11/01 09:38:25;;;;;;;4.43;2.28;;;;;;;9.79;100.00;92297.63;6153469;23;20029;-80
2023/11/01 09:40:51;;;;;;;3.97;1.98;;;;;;;9.74;100.00;92297.69;6154245;23;20458;-80
2023/11/01 09:43:20;;;;;;;3.58;1.30;;;;;;;9.67;100.00;92299.13;6157197;23;20033;-81
2023/11/01 09:45:46;;;;;;;3.55;1.70;;;;;;;9.64;100.00;92300.47;6156284;23;20013;-81
2023/11/01 09:48:12;;;;;;;2.22;1.40;;;;;;;9.76;100.00;92292.19;6127434;23;20025;-81
2023/11/01 09:50:39;;;;;;;2.38;1.40;;;;;;;9.94;100.00;92298.44;6150612;23;20021;-80
2023/11/01 09:53:05;;;;;;;2.92;1.60;;;;;;;10.12;100.00;92287.16;6152120;23;20001;-80
2023/11/01 09:55:31;;;;;;;2.70;1.40;;;;;;;10.15;100.00;92299.66;6155913;23;20359;-80
2023/11/01 09:57:58;;;;;;;2.83;1.65;;;;;;;9.90;100.00;92300.06;6148839;23;20037;-80
2023/11/01 10:00:24;;;;;;;3.58;1.63;;;;;;;9.76;100.00;92297.41;6149369;23;20373;-80
2023/11/01 10:02:50;;;;;;;1.55;1.10;;;;;;;9.61;100.00;92298.41;6147412;23;20018;-80
2023/11/01 10:05:17;;;;;;;1.70;1.25;;;;;;;9.35;100.00;92298.78;6079542;23;20462;-79
2023/11/01 10:07:42;;;;;;;2.88;1.23;;;;;;;9.37;100.00;92301.13;6152993;23;20010;-80
2023/11/01 10:10:15;;;;;;;1.77;1.10;;;;;;;9.47;100.00;92294.97;6150732;23;20497;-80
2023/11/01 10:12:45;;;;;;;2.17;1.40;;;;;;;9.60;100.00;92296.88;6153306;23;20018;-81
2023/11/01 10:15:22;;;;;;;2.85;1.45;;;;;;;9.73;100.00;92288.31;6152838;23;20009;-81
2023/11/01 10:17:49;;;;;;;2.38;1.50;;;;;;;9.87;100.00;92277.13;6156948;23;20029;-80
2023/11/01 10:20:23;;;;;;;2.55;1.60;;;;;;;9.83;100.00;92271.69;6156553;23;20005;-81
2023/11/01 10:22:49;;;;;;;4.03;1.63;;;;;;;9.61;100.00;92281.97;6154108;23;20018;-81
2023/11/01 10:25:15;;;;;;;5.03;1.50;;;;;;;9.48;100.00;92281.63;6155865;23;20018;-81
2023/11/01 10:27:41;;;;;;;3.10;1.63;;;;;;;9.38;100.00;92273.94;6154631;23;20012;-83
2023/11/01 10:30:07;;;;;;;2.70;1.50;;;;;;;9.31;100.00;92271.66;6154690;23;20059;-82
2023/11/01 10:32:33;;;;;;;1.85;1.30;;;;;;;9.30;100.00;92269.31;6154174;23;20393;-81
2023/11/01 10:35:12;;;;;;;3.38;1.52;;;;;;;9.35;100.00;92262.22;6152046;23;20006;-81
2023/11/01 10:37:38;;;;;;;3.03;1.35;;;;;;;9.48;100.00;92259.94;6151074;23;20086;-81
2023/11/01 10:40:10;;;;;;;5.10;1.20;;;;;;;9.49;100.00;92257.03;6125787;23;20059;-81
2023/11/01 10:42:40;;;;;;;2.95;1.60;;;;;;;9.58;100.00;92254.56;6151233;23;20040;-81
2023/11/01 10:45:06;;;;;;;3.40;1.50;;;;;;;9.52;100.00;92255.69;6149441;23;20069;-80
2023/11/01 10:47:32;;;;;;;2.80;1.45;;;;;;;9.57;100.00;92253.78;6149194;23;20036;-80
2023/11/01 10:49:58;;;;;;;2.47;1.30;;;;;;;9.41;100.00;92254.28;6152765;23;20429;-80
2023/11/01 10:52:27;;;;;;;2.38;1.23;;;;;;;9.32;100.00;92252.34;6151706;23;20069;-80
2023/11/01 10:54:54;;;;;;;3.60;1.23;;;;;;;9.15;100.00;92244.22;6125526;23;20436;-80
2023/11/01 10:57:21;;;;;;;2.15;1.27;;;;;;;9.05;100.00;92241.72;6149032;23;20052;-79
2023/11/01 10:59:58;;;;;;;4.07;2.00;;;;;;;9.01;100.00;92249.38;6149397;23;20025;-79
2023/11/01 11:02:32;;;;;;;3.88;2.00;;;;;;;9.03;100.00;92244.66;6151813;23;20044;-80
2023/11/01 11:05:05;;;;;;;2.80;1.50;;;;;;;9.05;100.00;92239.91;6153100;23;20005;-80
2023/11/01 11:07:43;;;;;;;3.85;1.70;;;;;;;9.08;100.00;92230.75;6150715;23;20044;-82
2023/11/01 11:10:28;;;;;;;5.10;2.10;;;;;;;9.22;100.00;92233.41;6147695;23;20131;-79
2023/11/01 11:13:18;;;;;;;4.43;1.73;;;;;;;9.35;100.00;92230.88;6152984;23;20018;-80
2023/11/01 11:16:10;;;;;;;2.05;1.35;;;;;;;9.46;100.00;92230.72;6148811;23;20021;-80
2023/11/01 11:18:42;;;;;;;5.13;1.70;;;;;;;9.44;100.00;92225.78;6148941;23;20037;-80
2023/11/01 11:21:08;;;;;;;6.13;1.85;;;;;;;9.14;100.00;92226.97;6154475;23;20296;-79
2023/11/01 11:23:35;;;;;;;5.28;2.30;;;;;;;8.99;100.00;92216.78;6153269;23;20010;-79
2023/11/01 11:26:02;;;;;;;5.18;1.77;;;;;;;8.96;100.00;92216.28;6147839;23;20021;-78
2023/11/01 11:28:46;;;;;;;5.93;2.88;;;;;;;9.01;100.00;92212.03;6127033;22;20071;-78
2023/11/01 11:31:13;;;;;;;6.63;2.08;;;;;;;8.92;100.00;92207.44;6148187;23;20124;-79